sensor_id;sensor_type;location;lat;lon;timestamp;P1;durP1;ratioP1;P2;durP2;ratioP2
19030;SDS011;9648;51.130;13.978;2023-03-13T00:01:34;11.07;;;4.10;;
19030;SDS011;9648;51.130;13.978;2023-03-13T00:04:02;12.57;;;3.83;;
19030;SDS011;9648;51.130;13.978;2023-03-13T00:06:30;12.02;;;3.53;;
19030;SDS011;9648;51.130;13.978;2023-03-13T00:09:00;11.70;;;3.60;;
19030;SDS011;9648;51.130;13.978;2023-03-13T00:11:27;12.25;;;3.72;;
19030;SDS011;9648;51.130;13.978;2023-03-13T00:13:54;9.38;;;3.50;;
19030;SDS011;9648;51.130;13.978;2023-03-13T00:16:22;14.95;;;4.05;;
19030;SDS011;9648;51.130;13.978;2023-03-13T00:18:49;13.73;;;3.80;;
19030;SDS011;9648;51.130;13.978;2023-03-13T00:21:19;11.35;;;3.70;;
19030;SDS011;9648;51.130;13.978;2023-03-13T00:23:47;12.10;;;3.42;;
19030;SDS011;9648;51.130;13.978;2023-03-13T00:26:17;10.73;;;3.40;;
19030;SDS011;9648;51.130;13.978;2023-03-13T00:28:45;14.38;;;3.75;;
19030;SDS011;9648;51.130;13.978;2023-03-13T00:31:13;13.43;;;4.13;;
19030;SDS011;9648;51.130;13.978;2023-03-13T00:33:41;15.40;;;3.95;;
19030;SDS011;9648;51.130;13.978;2023-03-13T00:36:09;14.13;;;3.53;;
19030;SDS011;9648;51.130;13.978;2023-03-13T00:38:38;11.80;;;4.03;;
19030;SDS011;9648;51.130;13.978;2023-03-13T00:41:06;16.60;;;4.20;;
19030;SDS011;9648;51.130;13.978;2023-03-13T00:43:37;14.07;;;4.40;;
19030;SDS011;9648;51.130;13.978;2023-03-13T00:46:05;13.80;;;4.03;;
19030;SDS011;9648;51.130;13.978;2023-03-13T00:48:32;14.25;;;4.28;;
19030;SDS011;9648;51.130;13.978;2023-03-13T00:50:59;11.23;;;3.53;;
19030;SDS011;9648;51.130;13.978;2023-03-13T00:53:27;18.95;;;4.03;;
19030;SDS011;9648;51.130;13.978;2023-03-13T00:55:54;15.27;;;3.67;;
19030;SDS011;9648;51.130;13.978;2023-03-13T00:58:24;13.23;;;4.18;;
19030;SDS011;9648;51.130;13.978;2023-03-13T01:00:52;19.17;;;4.25;;
19030;SDS011;9648;51.130;13.978;2023-03-13T01:03:20;15.90;;;4.20;;
19030;SDS011;9648;51.130;13.978;2023-03-13T01:05:54;12.38;;;3.53;;
19030;SDS011;9648;51.130;13.978;2023-03-13T01:08:21;13.10;;;3.90;;
19030;SDS011;9648;51.130;13.978;2023-03-13T01:10:48;17.60;;;4.55;;
19030;SDS011;9648;51.130;13.978;2023-03-13T01:13:14;15.40;;;3.80;;
19030;SDS011;9648;51.130;13.978;2023-03-13T01:15:41;12.45;;;3.60;;
19030;SDS011;9648;51.130;13.978;2023-03-13T01:18:09;10.88;;;3.38;;
19030;SDS011;9648;51.130;13.978;2023-03-13T01:20:39;15.00;;;3.83;;
19030;SDS011;9648;51.130;13.978;2023-03-13T01:23:06;13.32;;;4.00;;
19030;SDS011;9648;51.130;13.978;2023-03-13T01:25:34;14.68;;;4.03;;
19030;SDS011;9648;51.130;13.978;2023-03-13T01:28:01;14.23;;;4.00;;
19030;SDS011;9648;51.130;13.978;2023-03-13T01:30:28;12.18;;;4.00;;
19030;SDS011;9648;51.130;13.978;2023-03-13T01:32:54;16.52;;;3.80;;
19030;SDS011;9648;51.130;13.978;2023-03-13T01:35:22;14.02;;;3.78;;
19030;SDS011;9648;51.130;13.978;2023-03-13T01:37:49;13.98;;;3.83;;
19030;SDS011;9648;51.130;13.978;2023-03-13T01:40:16;16.48;;;4.05;;
19030;SDS011;9648;51.130;13.978;2023-03-13T01:42:52;15.35;;;4.13;;
19030;SDS011;9648;51.130;13.978;2023-03-13T01:48:24;13.00;;;3.85;;
19030;SDS011;9648;51.130;13.978;2023-03-13T01:50:57;17.87;;;4.23;;
19030;SDS011;9648;51.130;13.978;2023-03-13T01:53:25;15.77;;;4.27;;
19030;SDS011;9648;51.130;13.978;2023-03-13T01:55:56;18.08;;;4.20;;
19030;SDS011;9648;51.130;13.978;2023-03-13T01:58:24;16.63;;;4.00;;
19030;SDS011;9648;51.130;13.978;2023-03-13T02:00:53;16.00;;;4.20;;
19030;SDS011;9648;51.130;13.978;2023-03-13T02:03:20;14.68;;;3.70;;
19030;SDS011;9648;51.130;13.978;2023-03-13T02:05:48;16.42;;;4.00;;
19030;SDS011;9648;51.130;13.978;2023-03-13T02:08:21;18.52;;;4.30;;
19030;SDS011;9648;51.130;13.978;2023-03-13T02:10:52;22.65;;;3.80;;
19030;SDS011;9648;51.130;13.978;2023-03-13T02:13:23;14.25;;;3.72;;
19030;SDS011;9648;51.130;13.978;2023-03-13T02:15:50;12.77;;;3.60;;
19030;SDS011;9648;51.130;13.978;2023-03-13T02:18:17;14.38;;;3.88;;
19030;SDS011;9648;51.130;13.978;2023-03-13T02:20:44;15.88;;;4.00;;
19030;SDS011;9648;51.130;13.978;2023-03-13T02:23:13;13.77;;;3.72;;
19030;SDS011;9648;51.130;13.978;2023-03-13T02:25:48;15.60;;;4.15;;
19030;SDS011;9648;51.130;13.978;2023-03-13T02:28:20;16.67;;;4.20;;
19030;SDS011;9648;51.130;13.978;2023-03-13T02:30:50;18.10;;;4.30;;
19030;SDS011;9648;51.130;13.978;2023-03-13T02:33:19;17.40;;;3.67;;
19030;SDS011;9648;51.130;13.978;2023-03-13T02:35:47;15.32;;;3.42;;
19030;SDS011;9648;51.130;13.978;2023-03-13T02:38:17;18.95;;;3.83;;
19030;SDS011;9648;51.130;13.978;2023-03-13T02:40:49;18.52;;;3.72;;
19030;SDS011;9648;51.130;13.978;2023-03-13T02:43:18;15.10;;;3.53;;
19030;SDS011;9648;51.130;13.978;2023-03-13T02:45:59;19.35;;;4.25;;
19030;SDS011;9648;51.130;13.978;2023-03-13T02:48:29;19.23;;;3.85;;
19030;SDS011;9648;51.130;13.978;2023-03-13T02:50:58;18.33;;;4.05;;
19030;SDS011;9648;51.130;13.978;2023-03-13T02:53:27;15.53;;;3.50;;
19030;SDS011;9648;51.130;13.978;2023-03-13T02:55:55;19.20;;;3.90;;
19030;SDS011;9648;51.130;13.978;2023-03-13T02:58:22;17.85;;;4.00;;
19030;SDS011;9648;51.130;13.978;2023-03-13T03:00:50;16.67;;;3.83;;
19030;SDS011;9648;51.130;13.978;2023-03-13T03:03:17;20.27;;;4.70;;
19030;SDS011;9648;51.130;13.978;2023-03-13T03:05:43;15.83;;;3.47;;
19030;SDS011;9648;51.130;13.978;2023-03-13T03:08:10;16.20;;;3.72;;
19030;SDS011;9648;51.130;13.978;2023-03-13T03:10:37;17.25;;;4.15;;
19030;SDS011;9648;51.130;13.978;2023-03-13T03:13:08;18.15;;;3.85;;
19030;SDS011;9648;51.130;13.978;2023-03-13T03:15:34;18.30;;;3.95;;
19030;SDS011;9648;51.130;13.978;2023-03-13T03:18:01;16.77;;;4.00;;
19030;SDS011;9648;51.130;13.978;2023-03-13T03:20:28;17.08;;;3.80;;
19030;SDS011;9648;51.130;13.978;2023-03-13T03:22:54;16.83;;;3.95;;
19030;SDS011;9648;51.130;13.978;2023-03-13T03:25:21;15.38;;;4.00;;
19030;SDS011;9648;51.130;13.978;2023-03-13T03:27:48;19.80;;;4.80;;
19030;SDS011;9648;51.130;13.978;2023-03-13T03:30:17;17.30;;;4.00;;
19030;SDS011;9648;51.130;13.978;2023-03-13T03:32:44;17.45;;;4.00;;
19030;SDS011;9648;51.130;13.978;2023-03-13T03:35:11;17.15;;;3.85;;
19030;SDS011;9648;51.130;13.978;2023-03-13T03:37:38;16.90;;;3.90;;
19030;SDS011;9648;51.130;13.978;2023-03-13T03:40:05;18.20;;;3.90;;
19030;SDS011;9648;51.130;13.978;2023-03-13T03:42:33;19.50;;;3.78;;
19030;SDS011;9648;51.130;13.978;2023-03-13T03:45:00;19.13;;;4.18;;
19030;SDS011;9648;51.130;13.978;2023-03-13T03:47:28;20.67;;;4.30;;
19030;SDS011;9648;51.130;13.978;2023-03-13T03:49:54;22.38;;;4.03;;
19030;SDS011;9648;51.130;13.978;2023-03-13T03:52:21;17.08;;;3.70;;
19030;SDS011;9648;51.130;13.978;2023-03-13T03:54:48;18.35;;;3.70;;
19030;SDS011;9648;51.130;13.978;2023-03-13T03:57:18;24.10;;;4.20;;
19030;SDS011;9648;51.130;13.978;2023-03-13T03:59:44;14.88;;;4.15;;
19030;SDS011;9648;51.130;13.978;2023-03-13T04:02:11;18.77;;;4.22;;
19030;SDS011;9648;51.130;13.978;2023-03-13T04:04:39;17.10;;;3.55;;
19030;SDS011;9648;51.130;13.978;2023-03-13T04:07:06;14.55;;;3.55;;
19030;SDS011;9648;51.130;13.978;2023-03-13T04:09:32;16.05;;;3.28;;
19030;SDS011;9648;51.130;13.978;2023-03-13T04:11:59;16.40;;;4.13;;
19030;SDS011;9648;51.130;13.978;2023-03-13T04:14:26;14.57;;;3.63;;
19030;SDS011;9648;51.130;13.978;2023-03-13T04:16:53;15.98;;;3.38;;
19030;SDS011;9648;51.130;13.978;2023-03-13T04:19:19;17.05;;;3.80;;
19030;SDS011;9648;51.130;13.978;2023-03-13T04:21:48;16.45;;;3.47;;
19030;SDS011;9648;51.130;13.978;2023-03-13T04:24:14;15.95;;;3.47;;
19030;SDS011;9648;51.130;13.978;2023-03-13T04:26:41;14.93;;;3.93;;
19030;SDS011;9648;51.130;13.978;2023-03-13T04:29:07;14.70;;;3.22;;
19030;SDS011;9648;51.130;13.978;2023-03-13T04:31:34;17.95;;;3.50;;
19030;SDS011;9648;51.130;13.978;2023-03-13T04:34:01;15.87;;;3.10;;
19030;SDS011;9648;51.130;13.978;2023-03-13T04:36:27;15.27;;;3.42;;
19030;SDS011;9648;51.130;13.978;2023-03-13T04:38:55;16.27;;;3.85;;
19030;SDS011;9648;51.130;13.978;2023-03-13T04:41:22;17.80;;;3.50;;
19030;SDS011;9648;51.130;13.978;2023-03-13T04:43:49;15.48;;;3.38;;
19030;SDS011;9648;51.130;13.978;2023-03-13T04:46:15;13.60;;;3.67;;
19030;SDS011;9648;51.130;13.978;2023-03-13T04:48:42;18.10;;;3.58;;
19030;SDS011;9648;51.130;13.978;2023-03-13T04:51:10;11.98;;;3.33;;
19030;SDS011;9648;51.130;13.978;2023-03-13T04:53:37;11.63;;;3.03;;
19030;SDS011;9648;51.130;13.978;2023-03-13T04:56:05;13.75;;;3.50;;
19030;SDS011;9648;51.130;13.978;2023-03-13T04:58:32;13.02;;;3.00;;
19030;SDS011;9648;51.130;13.978;2023-03-13T05:00:59;14.30;;;3.20;;
19030;SDS011;9648;51.130;13.978;2023-03-13T05:03:26;15.60;;;3.55;;
19030;SDS011;9648;51.130;13.978;2023-03-13T05:05:52;14.27;;;3.38;;
19030;SDS011;9648;51.130;13.978;2023-03-13T05:08:19;16.20;;;3.40;;
19030;SDS011;9648;51.130;13.978;2023-03-13T05:10:46;12.25;;;3.47;;
19030;SDS011;9648;51.130;13.978;2023-03-13T05:13:14;17.60;;;3.88;;
19030;SDS011;9648;51.130;13.978;2023-03-13T05:15:41;16.98;;;4.05;;
19030;SDS011;9648;51.130;13.978;2023-03-13T05:18:07;19.93;;;3.97;;
19030;SDS011;9648;51.130;13.978;2023-03-13T05:20:34;18.27;;;4.10;;
19030;SDS011;9648;51.130;13.978;2023-03-13T05:23:01;17.67;;;3.70;;
19030;SDS011;9648;51.130;13.978;2023-03-13T05:25:28;15.20;;;3.67;;
19030;SDS011;9648;51.130;13.978;2023-03-13T05:27:54;17.13;;;4.30;;
19030;SDS011;9648;51.130;13.978;2023-03-13T05:30:22;17.85;;;5.05;;
19030;SDS011;9648;51.130;13.978;2023-03-13T05:32:49;14.10;;;4.22;;
19030;SDS011;9648;51.130;13.978;2023-03-13T05:35:16;14.07;;;4.80;;
19030;SDS011;9648;51.130;13.978;2023-03-13T05:37:43;14.77;;;5.32;;
19030;SDS011;9648;51.130;13.978;2023-03-13T05:40:10;15.40;;;5.10;;
19030;SDS011;9648;51.130;13.978;2023-03-13T05:42:37;17.70;;;5.38;;
19030;SDS011;9648;51.130;13.978;2023-03-13T05:45:05;18.05;;;6.00;;
19030;SDS011;9648;51.130;13.978;2023-03-13T05:47:34;18.17;;;6.15;;
19030;SDS011;9648;51.130;13.978;2023-03-13T05:50:02;15.90;;;6.05;;
19030;SDS011;9648;51.130;13.978;2023-03-13T05:52:30;17.25;;;5.93;;
19030;SDS011;9648;51.130;13.978;2023-03-13T05:54:57;14.30;;;6.10;;
19030;SDS011;9648;51.130;13.978;2023-03-13T05:57:24;17.83;;;6.33;;
19030;SDS011;9648;51.130;13.978;2023-03-13T05:59:50;16.55;;;6.20;;
19030;SDS011;9648;51.130;13.978;2023-03-13T06:02:17;13.88;;;6.22;;
19030;SDS011;9648;51.130;13.978;2023-03-13T06:04:46;23.43;;;7.80;;
19030;SDS011;9648;51.130;13.978;2023-03-13T06:07:13;17.35;;;7.53;;
19030;SDS011;9648;51.130;13.978;2023-03-13T06:09:39;16.27;;;8.60;;
19030;SDS011;9648;51.130;13.978;2023-03-13T06:12:25;18.15;;;9.70;;
19030;SDS011;9648;51.130;13.978;2023-03-13T06:15:10;21.92;;;10.98;;
19030;SDS011;9648;51.130;13.978;2023-03-13T06:17:37;22.15;;;11.35;;
19030;SDS011;9648;51.130;13.978;2023-03-13T06:20:06;21.75;;;11.20;;
19030;SDS011;9648;51.130;13.978;2023-03-13T06:22:33;19.30;;;11.02;;
19030;SDS011;9648;51.130;13.978;2023-03-13T06:25:00;22.38;;;11.93;;
19030;SDS011;9648;51.130;13.978;2023-03-13T06:27:46;22.93;;;11.97;;
19030;SDS011;9648;51.130;13.978;2023-03-13T06:30:31;21.33;;;11.20;;
19030;SDS011;9648;51.130;13.978;2023-03-13T06:32:58;23.13;;;11.75;;
19030;SDS011;9648;51.130;13.978;2023-03-13T06:35:26;24.95;;;12.10;;
19030;SDS011;9648;51.130;13.978;2023-03-13T06:37:53;21.73;;;11.05;;
19030;SDS011;9648;51.130;13.978;2023-03-13T06:40:19;22.67;;;10.60;;
19030;SDS011;9648;51.130;13.978;2023-03-13T06:42:46;20.23;;;10.57;;
19030;SDS011;9648;51.130;13.978;2023-03-13T06:45:13;17.80;;;10.10;;
19030;SDS011;9648;51.130;13.978;2023-03-13T06:47:40;21.27;;;10.20;;
19030;SDS011;9648;51.130;13.978;2023-03-13T06:50:07;20.53;;;10.50;;
19030;SDS011;9648;51.130;13.978;2023-03-13T06:52:35;20.25;;;10.30;;
19030;SDS011;9648;51.130;13.978;2023-03-13T06:55:03;18.35;;;9.77;;
19030;SDS011;9648;51.130;13.978;2023-03-13T06:57:30;21.98;;;10.18;;
19030;SDS011;9648;51.130;13.978;2023-03-13T06:59:57;21.55;;;9.82;;
19030;SDS011;9648;51.130;13.978;2023-03-13T07:02:23;19.53;;;9.43;;
19030;SDS011;9648;51.130;13.978;2023-03-13T07:04:50;18.38;;;8.30;;
19030;SDS011;9648;51.130;13.978;2023-03-13T07:07:17;21.05;;;8.80;;
19030;SDS011;9648;51.130;13.978;2023-03-13T07:09:45;19.33;;;8.80;;
19030;SDS011;9648;51.130;13.978;2023-03-13T07:12:11;17.50;;;8.48;;
19030;SDS011;9648;51.130;13.978;2023-03-13T07:14:38;14.80;;;8.40;;
19030;SDS011;9648;51.130;13.978;2023-03-13T07:17:05;18.15;;;9.20;;
19030;SDS011;9648;51.130;13.978;2023-03-13T07:19:31;18.77;;;8.20;;
19030;SDS011;9648;51.130;13.978;2023-03-13T07:21:58;19.70;;;8.73;;
19030;SDS011;9648;51.130;13.978;2023-03-13T07:24:45;15.13;;;8.00;;
19030;SDS011;9648;51.130;13.978;2023-03-13T07:27:30;17.85;;;8.40;;
19030;SDS011;9648;51.130;13.978;2023-03-13T07:30:16;16.95;;;8.40;;
19030;SDS011;9648;51.130;13.978;2023-03-13T07:32:43;13.10;;;7.07;;
19030;SDS011;9648;51.130;13.978;2023-03-13T07:35:10;13.57;;;6.60;;
19030;SDS011;9648;51.130;13.978;2023-03-13T07:37:36;14.32;;;6.50;;
19030;SDS011;9648;51.130;13.978;2023-03-13T07:40:05;12.65;;;6.20;;
19030;SDS011;9648;51.130;13.978;2023-03-13T07:42:38;13.45;;;6.30;;
19030;SDS011;9648;51.130;13.978;2023-03-13T07:45:06;13.87;;;6.00;;
19030;SDS011;9648;51.130;13.978;2023-03-13T07:47:33;14.63;;;6.57;;
19030;SDS011;9648;51.130;13.978;2023-03-13T07:50:00;13.23;;;6.43;;
19030;SDS011;9648;51.130;13.978;2023-03-13T07:52:27;12.85;;;6.53;;
19030;SDS011;9648;51.130;13.978;2023-03-13T07:54:54;14.15;;;7.05;;
19030;SDS011;9648;51.130;13.978;2023-03-13T07:57:22;14.32;;;6.95;;
19030;SDS011;9648;51.130;13.978;2023-03-13T07:59:48;13.65;;;6.65;;
19030;SDS011;9648;51.130;13.978;2023-03-13T08:02:15;15.60;;;7.20;;
19030;SDS011;9648;51.130;13.978;2023-03-13T08:04:42;14.13;;;7.35;;
19030;SDS011;9648;51.130;13.978;2023-03-13T08:07:09;15.88;;;7.30;;
19030;SDS011;9648;51.130;13.978;2023-03-13T08:09:36;16.02;;;7.70;;
19030;SDS011;9648;51.130;13.978;2023-03-13T08:12:03;15.18;;;7.13;;
19030;SDS011;9648;51.130;13.978;2023-03-13T08:14:31;14.70;;;7.00;;
19030;SDS011;9648;51.130;13.978;2023-03-13T08:16:58;14.73;;;6.88;;
19030;SDS011;9648;51.130;13.978;2023-03-13T08:19:25;13.68;;;7.00;;
19030;SDS011;9648;51.130;13.978;2023-03-13T08:21:51;15.07;;;6.38;;
19030;SDS011;9648;51.130;13.978;2023-03-13T08:24:18;12.70;;;6.30;;
19030;SDS011;9648;51.130;13.978;2023-03-13T08:26:45;14.95;;;6.90;;
19030;SDS011;9648;51.130;13.978;2023-03-13T08:29:12;12.45;;;6.97;;
19030;SDS011;9648;51.130;13.978;2023-03-13T08:31:43;15.57;;;6.75;;
19030;SDS011;9648;51.130;13.978;2023-03-13T08:34:11;14.48;;;5.72;;
19030;SDS011;9648;51.130;13.978;2023-03-13T08:36:38;12.90;;;6.10;;
19030;SDS011;9648;51.130;13.978;2023-03-13T08:39:06;16.90;;;6.47;;
19030;SDS011;9648;51.130;13.978;2023-03-13T08:41:36;12.57;;;5.50;;
19030;SDS011;9648;51.130;13.978;2023-03-13T08:44:14;13.57;;;5.30;;
19030;SDS011;9648;51.130;13.978;2023-03-13T08:46:46;11.55;;;5.68;;
19030;SDS011;9648;51.130;13.978;2023-03-13T08:49:17;14.23;;;6.35;;
19030;SDS011;9648;51.130;13.978;2023-03-13T08:51:43;15.02;;;6.03;;
19030;SDS011;9648;51.130;13.978;2023-03-13T08:54:10;16.00;;;6.43;;
19030;SDS011;9648;51.130;13.978;2023-03-13T08:56:37;13.30;;;5.88;;
19030;SDS011;9648;51.130;13.978;2023-03-13T08:59:05;16.95;;;6.25;;
19030;SDS011;9648;51.130;13.978;2023-03-13T09:01:32;14.52;;;6.45;;
19030;SDS011;9648;51.130;13.978;2023-03-13T09:04:04;12.98;;;6.68;;
19030;SDS011;9648;51.130;13.978;2023-03-13T09:06:31;17.15;;;6.72;;
19030;SDS011;9648;51.130;13.978;2023-03-13T09:08:58;14.77;;;6.65;;
19030;SDS011;9648;51.130;13.978;2023-03-13T09:11:25;13.20;;;6.20;;
19030;SDS011;9648;51.130;13.978;2023-03-13T09:13:53;12.40;;;6.13;;
19030;SDS011;9648;51.130;13.978;2023-03-13T09:16:23;11.05;;;5.40;;
19030;SDS011;9648;51.130;13.978;2023-03-13T09:18:51;11.10;;;5.23;;
19030;SDS011;9648;51.130;13.978;2023-03-13T09:21:20;10.65;;;5.20;;
19030;SDS011;9648;51.130;13.978;2023-03-13T09:23:48;11.00;;;5.05;;
19030;SDS011;9648;51.130;13.978;2023-03-13T09:26:16;10.35;;;4.78;;
19030;SDS011;9648;51.130;13.978;2023-03-13T09:28:43;10.68;;;4.63;;
19030;SDS011;9648;51.130;13.978;2023-03-13T09:31:11;7.68;;;4.00;;
19030;SDS011;9648;51.130;13.978;2023-03-13T09:33:39;8.47;;;4.17;;
19030;SDS011;9648;51.130;13.978;2023-03-13T09:36:06;9.60;;;4.10;;
19030;SDS011;9648;51.130;13.978;2023-03-13T09:38:35;9.17;;;4.47;;
19030;SDS011;9648;51.130;13.978;2023-03-13T09:41:03;8.70;;;4.03;;
19030;SDS011;9648;51.130;13.978;2023-03-13T09:43:45;8.57;;;3.85;;
19030;SDS011;9648;51.130;13.978;2023-03-13T09:46:16;6.60;;;4.00;;
19030;SDS011;9648;51.130;13.978;2023-03-13T09:48:47;8.23;;;4.47;;
19030;SDS011;9648;51.130;13.978;2023-03-13T09:51:17;8.82;;;4.43;;
19030;SDS011;9648;51.130;13.978;2023-03-13T09:53:50;8.60;;;4.18;;
19030;SDS011;9648;51.130;13.978;2023-03-13T09:56:22;9.40;;;4.05;;
19030;SDS011;9648;51.130;13.978;2023-03-13T09:58:52;8.53;;;3.90;;
19030;SDS011;9648;51.130;13.978;2023-03-13T10:01:23;10.13;;;4.50;;
19030;SDS011;9648;51.130;13.978;2023-03-13T10:03:59;10.93;;;4.70;;
19030;SDS011;9648;51.130;13.978;2023-03-13T10:06:32;8.65;;;5.00;;
19030;SDS011;9648;51.130;13.978;2023-03-13T10:09:04;12.00;;;5.20;;
19030;SDS011;9648;51.130;13.978;2023-03-13T10:11:41;9.53;;;5.60;;
19030;SDS011;9648;51.130;13.978;2023-03-13T10:14:13;12.80;;;6.07;;
19030;SDS011;9648;51.130;13.978;2023-03-13T10:16:46;9.95;;;6.03;;
19030;SDS011;9648;51.130;13.978;2023-03-13T10:19:21;9.55;;;6.10;;
19030;SDS011;9648;51.130;13.978;2023-03-13T10:22:00;11.27;;;7.40;;
19030;SDS011;9648;51.130;13.978;2023-03-13T10:24:31;10.90;;;6.93;;
19030;SDS011;9648;51.130;13.978;2023-03-13T10:27:01;9.25;;;6.30;;
19030;SDS011;9648;51.130;13.978;2023-03-13T10:29:28;9.77;;;5.93;;
19030;SDS011;9648;51.130;13.978;2023-03-13T10:31:56;9.70;;;5.63;;
19030;SDS011;9648;51.130;13.978;2023-03-13T10:34:24;8.55;;;5.60;;
19030;SDS011;9648;51.130;13.978;2023-03-13T10:36:56;9.70;;;5.35;;
19030;SDS011;9648;51.130;13.978;2023-03-13T10:39:24;8.55;;;5.75;;
19030;SDS011;9648;51.130;13.978;2023-03-13T10:41:56;9.30;;;5.00;;
19030;SDS011;9648;51.130;13.978;2023-03-13T10:44:33;8.33;;;4.80;;
19030;SDS011;9648;51.130;13.978;2023-03-13T10:47:01;6.82;;;4.70;;
19030;SDS011;9648;51.130;13.978;2023-03-13T10:49:29;7.20;;;4.90;;
19030;SDS011;9648;51.130;13.978;2023-03-13T10:51:57;8.77;;;4.95;;
19030;SDS011;9648;51.130;13.978;2023-03-13T10:54:26;7.38;;;4.45;;
19030;SDS011;9648;51.130;13.978;2023-03-13T10:57:08;7.10;;;4.73;;
19030;SDS011;9648;51.130;13.978;2023-03-13T10:59:46;7.15;;;4.28;;
19030;SDS011;9648;51.130;13.978;2023-03-13T11:02:21;10.07;;;5.00;;
19030;SDS011;9648;51.130;13.978;2023-03-13T11:04:50;9.00;;;4.50;;
19030;SDS011;9648;51.130;13.978;2023-03-13T11:07:19;9.38;;;4.57;;
19030;SDS011;9648;51.130;13.978;2023-03-13T11:09:57;7.53;;;4.50;;
19030;SDS011;9648;51.130;13.978;2023-03-13T11:12:26;8.43;;;5.10;;
19030;SDS011;9648;51.130;13.978;2023-03-13T11:14:56;9.10;;;4.93;;
19030;SDS011;9648;51.130;13.978;2023-03-13T11:17:27;10.05;;;4.82;;
19030;SDS011;9648;51.130;13.978;2023-03-13T11:19:59;10.95;;;4.75;;
19030;SDS011;9648;51.130;13.978;2023-03-13T11:22:38;8.18;;;4.47;;
19030;SDS011;9648;51.130;13.978;2023-03-13T11:25:22;7.50;;;4.85;;
19030;SDS011;9648;51.130;13.978;2023-03-13T11:27:57;7.57;;;4.55;;
19030;SDS011;9648;51.130;13.978;2023-03-13T11:30:53;8.25;;;4.93;;
19030;SDS011;9648;51.130;13.978;2023-03-13T11:33:34;7.22;;;4.32;;
19030;SDS011;9648;51.130;13.978;2023-03-13T11:36:08;7.40;;;4.60;;
19030;SDS011;9648;51.130;13.978;2023-03-13T11:38:44;8.30;;;4.60;;
19030;SDS011;9648;51.130;13.978;2023-03-13T11:41:19;6.35;;;4.60;;
19030;SDS011;9648;51.130;13.978;2023-03-13T11:44:15;10.60;;;5.00;;
19030;SDS011;9648;51.130;13.978;2023-03-13T11:46:58;8.40;;;4.82;;
19030;SDS011;9648;51.130;13.978;2023-03-13T11:49:47;8.57;;;4.67;;
19030;SDS011;9648;51.130;13.978;2023-03-13T11:52:25;7.88;;;4.65;;
19030;SDS011;9648;51.130;13.978;2023-03-13T11:55:20;7.20;;;4.95;;
19030;SDS011;9648;51.130;13.978;2023-03-13T11:57:55;7.38;;;4.80;;
19030;SDS011;9648;51.130;13.978;2023-03-13T12:00:34;8.45;;;4.60;;
19030;SDS011;9648;51.130;13.978;2023-03-13T12:03:05;5.32;;;3.80;;
19030;SDS011;9648;51.130;13.978;2023-03-13T12:05:40;6.55;;;4.00;;
19030;SDS011;9648;51.130;13.978;2023-03-13T12:08:11;5.28;;;3.45;;
19030;SDS011;9648;51.130;13.978;2023-03-13T12:10:43;6.78;;;4.25;;
19030;SDS011;9648;51.130;13.978;2023-03-13T12:13:17;5.65;;;3.90;;
19030;SDS011;9648;51.130;13.978;2023-03-13T12:15:49;6.65;;;4.43;;
19030;SDS011;9648;51.130;13.978;2023-03-13T12:18:21;4.45;;;2.88;;
19030;SDS011;9648;51.130;13.978;2023-03-13T12:20:52;2.72;;;1.20;;
19030;SDS011;9648;51.130;13.978;2023-03-13T12:23:23;2.20;;;1.10;;
19030;SDS011;9648;51.130;13.978;2023-03-13T12:25:57;4.22;;;1.20;;
19030;SDS011;9648;51.130;13.978;2023-03-13T12:28:34;2.50;;;1.00;;
19030;SDS011;9648;51.130;13.978;2023-03-13T12:31:08;2.22;;;1.10;;
19030;SDS011;9648;51.130;13.978;2023-03-13T12:33:43;2.10;;;1.00;;
19030;SDS011;9648;51.130;13.978;2023-03-13T12:36:16;2.35;;;0.90;;
19030;SDS011;9648;51.130;13.978;2023-03-13T12:38:48;2.60;;;0.95;;
19030;SDS011;9648;51.130;13.978;2023-03-13T12:41:21;4.00;;;1.05;;
19030;SDS011;9648;51.130;13.978;2023-03-13T12:43:51;1.80;;;1.20;;
19030;SDS011;9648;51.130;13.978;2023-03-13T12:46:33;3.75;;;1.40;;
19030;SDS011;9648;51.130;13.978;2023-03-13T12:49:14;2.50;;;1.00;;
19030;SDS011;9648;51.130;13.978;2023-03-13T12:51:59;1.95;;;1.00;;
19030;SDS011;9648;51.130;13.978;2023-03-13T12:57:53;2.47;;;1.00;;
19030;SDS011;9648;51.130;13.978;2023-03-13T13:00:34;2.00;;;1.02;;
19030;SDS011;9648;51.130;13.978;2023-03-13T13:03:08;2.33;;;1.17;;
19030;SDS011;9648;51.130;13.978;2023-03-13T13:05:56;1.67;;;1.15;;
19030;SDS011;9648;51.130;13.978;2023-03-13T13:08:25;2.80;;;1.00;;
19030;SDS011;9648;51.130;13.978;2023-03-13T13:10:52;2.05;;;1.02;;
19030;SDS011;9648;51.130;13.978;2023-03-13T13:13:27;2.97;;;1.33;;
19030;SDS011;9648;51.130;13.978;2023-03-13T13:15:59;1.70;;;1.00;;
19030;SDS011;9648;51.130;13.978;2023-03-13T13:18:33;2.87;;;1.20;;
19030;SDS011;9648;51.130;13.978;2023-03-13T13:21:19;1.63;;;1.00;;
19030;SDS011;9648;51.130;13.978;2023-03-13T13:23:50;1.80;;;1.10;;
19030;SDS011;9648;51.130;13.978;2023-03-13T13:35:20;2.53;;;1.10;;
19030;SDS011;9648;51.130;13.978;2023-03-13T13:37:52;2.28;;;0.80;;
19030;SDS011;9648;51.130;13.978;2023-03-13T13:40:56;4.75;;;1.27;;
19030;SDS011;9648;51.130;13.978;2023-03-13T13:43:25;1.83;;;1.10;;
19030;SDS011;9648;51.130;13.978;2023-03-13T13:45:57;3.27;;;1.07;;
19030;SDS011;9648;51.130;13.978;2023-03-13T13:48:27;3.60;;;0.93;;
19030;SDS011;9648;51.130;13.978;2023-03-13T13:51:21;2.60;;;0.90;;
19030;SDS011;9648;51.130;13.978;2023-03-13T13:53:56;2.65;;;0.90;;
19030;SDS011;9648;51.130;13.978;2023-03-13T13:56:29;2.67;;;1.48;;
19030;SDS011;9648;51.130;13.978;2023-03-13T13:59:20;3.38;;;1.60;;
19030;SDS011;9648;51.130;13.978;2023-03-13T14:02:14;1.70;;;1.05;;
19030;SDS011;9648;51.130;13.978;2023-03-13T14:04:45;2.15;;;1.05;;
19030;SDS011;9648;51.130;13.978;2023-03-13T14:07:17;2.10;;;1.00;;
19030;SDS011;9648;51.130;13.978;2023-03-13T14:09:47;2.85;;;1.23;;
19030;SDS011;9648;51.130;13.978;2023-03-13T14:12:23;3.80;;;1.30;;
19030;SDS011;9648;51.130;13.978;2023-03-13T14:15:04;3.27;;;2.10;;
19030;SDS011;9648;51.130;13.978;2023-03-13T14:17:38;2.72;;;1.10;;
19030;SDS011;9648;51.130;13.978;2023-03-13T14:23:00;3.78;;;0.95;;
19030;SDS011;9648;51.130;13.978;2023-03-13T14:25:41;1.60;;;0.80;;
19030;SDS011;9648;51.130;13.978;2023-03-13T14:30:48;3.97;;;2.80;;
19030;SDS011;9648;51.130;13.978;2023-03-13T14:33:16;2.93;;;2.10;;
19030;SDS011;9648;51.130;13.978;2023-03-13T14:35:47;3.90;;;1.17;;
19030;SDS011;9648;51.130;13.978;2023-03-13T14:38:16;2.40;;;0.93;;
19030;SDS011;9648;51.130;13.978;2023-03-13T14:40:45;3.75;;;1.17;;
19030;SDS011;9648;51.130;13.978;2023-03-13T14:43:24;2.25;;;0.93;;
19030;SDS011;9648;51.130;13.978;2023-03-13T14:45:55;4.40;;;1.20;;
19030;SDS011;9648;51.130;13.978;2023-03-13T14:48:22;3.00;;;0.95;;
19030;SDS011;9648;51.130;13.978;2023-03-13T14:50:53;4.03;;;1.00;;
19030;SDS011;9648;51.130;13.978;2023-03-13T14:53:29;1.85;;;0.98;;
19030;SDS011;9648;51.130;13.978;2023-03-13T14:56:09;3.63;;;0.93;;
19030;SDS011;9648;51.130;13.978;2023-03-13T14:58:37;5.70;;;1.30;;
19030;SDS011;9648;51.130;13.978;2023-03-13T15:01:11;2.72;;;1.27;;
19030;SDS011;9648;51.130;13.978;2023-03-13T15:03:47;1.88;;;1.00;;
19030;SDS011;9648;51.130;13.978;2023-03-13T15:06:23;1.60;;;0.85;;
19030;SDS011;9648;51.130;13.978;2023-03-13T15:11:42;4.90;;;1.35;;
19030;SDS011;9648;51.130;13.978;2023-03-13T15:14:32;1.65;;;0.93;;
19030;SDS011;9648;51.130;13.978;2023-03-13T15:17:05;2.60;;;1.20;;
19030;SDS011;9648;51.130;13.978;2023-03-13T15:19:40;3.13;;;0.90;;
19030;SDS011;9648;51.130;13.978;2023-03-13T15:22:09;2.90;;;1.00;;